x

Central Aleutians 230nm Sw Dutch Harbor (46072) Wave Buoy

5:50am - Thu 18th Dec 2014 All times are UTC.

  • Sig Wave height 12.8ft
  • Peak Period 12s
  • Average Period 8s
  • Wind
    7mph, 9mph gusts
  • Sea Temp 43°f
  • Air Temp 35°f
  • Sea Pressure 999.1mb

More Historic Weather Station data

Upgrade to MSW Pro to gain access to the past 30 days of data for over 8000 Wavebouys and Weather Stations around the globe.

Join Pro

Comparision Forecast

View Surf forecast
   
Thu 12/18 5:50am 13ft 12s 8s 7 9 mph 999.1mb 43f 35f
4:50am 14ft 12s 8s 13 18 mph 999.3mb 43f 37f
3:50am 14ft 13s 8s 16 22 mph 999.2mb 43f 36f
2:50am 14ft 13s 8s 18 25 mph 999mb 44f 37f
1:50am 13ft 10s 8s 20 25 mph 998.7mb 44f 37f
12:50am 14ft 12s 8s 22 27 mph 998.5mb 44f 37f
Wed 12/17 11:50pm 11.5ft 11s 7s 22 29 mph 997.9mb 44f 37f
10:50pm 12ft 9s 8s 22 29 mph 997.4mb 43f 37f
9:50pm 12.5ft 12s 8s 20 29 mph 997.2mb 43f 36f
8:50pm 13.5ft 11s 8s 18 22 mph 996.4mb 43f 37f
7:50pm 12.5ft 11s 8s 20 27 mph 995.5mb 43f 37f
6:50pm 13.5ft 12s 8s 22 29 mph 994.4mb 43f 37f
5:50pm 13ft 12s 8s 18 22 mph 993.8mb 43f 38f
4:50pm 11.5ft 12s 8s 20 25 mph 992.8mb 43f 37f
3:50pm 11ft 11s 8s 16 22 mph 992.1mb 43f 38f
2:50pm 12ft 11s 9s 20 27 mph 991.3mb 43f 37f
1:50pm 12ft 11s 9s 13 20 mph 991mb 43f 39f
12:50pm 11ft 11s 8s 11 13 mph 990.3mb 43f 38f
11:50am 11ft 11s 9s 9 13 mph 989.8mb 43f 38f
10:50am 12ft 11s 9s 7 11 mph 989.6mb 43f 38f
9:50am 11ft 11s 8s 7 9 mph 989.3mb 43f 38f
8:50am 11ft 10s 8s 7 11 mph 989.4mb 43f 38f
7:50am 11.5ft 12s 9s 9 13 mph 988.9mb 43f 38f
6:50am 12.5ft 11s 9s 9 13 mph 988.8mb 43f 38f
5:50am 12ft 11s 8s 7 11 mph 988.8mb 43f 38f
4:50am 12.5ft 11s 8s 11 13 mph 988.5mb 43f 38f
3:50am 12ft 11s 8s 4 9 mph 988.8mb 43f 38f
2:50am 12.5ft 11s 8s 7 9 mph 988.7mb 43f 38f
1:50am 13ft 11s 8s 9 13 mph 988.4mb 43f 37f
12:50am 11ft 11s 8s 16 18 mph 988.2mb 43f 38f
Tue 12/16 11:50pm 11.5ft 12s 8s 16 22 mph 988.4mb 44f 38f
10:50pm 12.5ft 11s 8s 20 25 mph 988.9mb 43f 38f
9:50pm 12ft 12s 7s 22 27 mph 989.3mb 43f 38f
8:50pm 12.5ft 11s 7s 22 27 mph 989.4mb 43f 39f
7:50pm 12.5ft 12s 7s 22 27 mph 989.6mb 43f 39f
6:50pm 12.5ft 11s 7s 20 27 mph 988.9mb 43f 38f
5:50pm 11ft 11s 7s 25 29 mph 988.9mb 43f 40f
4:50pm 12ft 12s 8s 22 29 mph 989.4mb 43f 40f
3:50pm 12.5ft 12s 9s 16 20 mph 990mb 43f 38f
2:50pm 12ft 11s 9s 16 20 mph 990.4mb 43f 38f
1:50pm 12ft 12s 8s 13 18 mph 990.5mb 43f 37f
12:50pm 11.5ft 11s 9s 13 18 mph 990.6mb 43f 38f
11:50am 12ft 12s 9s 16 20 mph 990.9mb 43f 38f
10:50am 11ft 12s 9s 11 13 mph 990.9mb 43f 39f
9:50am 13ft 13s 10s 13 18 mph 990.9mb 43f 37f
8:50am 12ft 13s 10s 4 9 mph 991mb 43f 37f
7:50am 11ft 12s 9s 16 25 mph 991.3mb 43f 38f
6:50am 11ft 12s 9s 7 9 mph 991.5mb 43f 37f
5:50am 11ft 12s 8s 11 13 mph 991.5mb 43f 37f
4:50am 10ft 13s 8s 18 25 mph 991.4mb 43f 40f
3:50am 11ft 13s 8s 16 18 mph 991.3mb 43f 40f
2:50am 11ft 13s 8s 16 20 mph 991.3mb 43f 40f
1:50am 11.5ft 12s 8s 18 25 mph 991.4mb 43f 40f
12:50am 12ft 12s 8s 16 20 mph 991.7mb 43f 40f
Mon 12/15 11:50pm 12ft 11s 8s 13 18 mph 992.1mb 43f 40f
10:50pm 13.5ft 12s 9s 13 18 mph 992.5mb 43f 39f
9:50pm 14ft 12s 9s 9 13 mph 992.7mb 43f 39f
8:50pm 14ft 13s 9s 11 16 mph 992.3mb 43f 39f
7:50pm 12.5ft 14s 9s 9 11 mph 991.9mb 43f 39f
6:50pm 13ft 13s 9s 9 11 mph 991.3mb 43f 39f
5:50pm 14ft 12s 9s 7 11 mph 991.2mb 43f 39f
4:50pm 14ft 12s 9s 7 11 mph 991mb 43f 39f
3:50pm 13ft 12s 8s 7 9 mph 991mb 43f 39f
2:50pm 15.5ft 13s 9s 7 9 mph 991.5mb 43f 39f
1:50pm 14ft 13s 8s 7 9 mph 991.8mb 43f 40f
12:50pm 15.5ft 12s 9s 7 11 mph 992.3mb 43f 40f
11:50am 15ft 13s 9s 11 13 mph 992.7mb 43f 40f
10:50am 16ft 13s 9s 11 16 mph 993.4mb 43f 40f
9:50am 15.5ft 14s 9s 16 20 mph 994.2mb 43f 40f
8:50am 16ft 12s 9s 18 22 mph 994.5mb 43f 40f
7:50am 15.5ft 13s 8s 20 25 mph 995mb 43f 40f
6:50am 16.5ft 13s 9s 22 27 mph 995.1mb 43f 40f
5:50am 19.5ft 14s 9s 25 34 mph 994.8mb 43f 41f
4:50am 18.5ft 14s 9s 25 31 mph 994.9mb 43f 41f
3:50am 20.5ft 11s 9s 25 34 mph 994.5mb 43f 41f
2:50am 19.5ft 14s 9s 27 36 mph 993.8mb 43f 41f
1:50am 19ft 14s 8s 29 34 mph 993.4mb 43f 41f
12:50am 18.5ft 12s 8s 27 34 mph 993.1mb 43f 40f
Sun 12/14 11:50pm 19.5ft 13s 8s 31 40 mph 992.7mb 43f 40f
10:50pm 19.5ft 14s 9s 34 40 mph 992.3mb 43f 40f
9:50pm 20.5ft 13s 9s 34 40 mph 991.9mb 43f 40f
8:50pm 18.5ft 13s 8s 31 38 mph 991.4mb 43f 40f
7:50pm 18.5ft 12s 8s 34 38 mph 990.6mb 43f 40f
6:50pm 20ft 11s 9s 31 38 mph 990.2mb 43f 39f
5:50pm 20.5ft 11s 8s 34 43 mph 989.6mb 43f 40f
4:50pm 20ft 11s 8s 34 43 mph 989mb 43f 40f
3:50pm 18.5ft 13s 8s 34 40 mph 988.7mb 43f 40f
2:50pm 19ft 12s 8s 29 38 mph 988.4mb 43f 39f
1:50pm 16ft 11s 8s 31 38 mph 987.5mb 43f 40f
12:50pm 17.5ft 12s 8s 34 40 mph 986.8mb 43f 40f
11:50am 15ft 11s 8s 31 40 mph 986.6mb 43f 39f
10:50am 16.5ft 12s 8s 25 31 mph 986.2mb 43f 40f
9:50am 15.5ft 11s 8s 27 31 mph 986.3mb 43f 40f
8:50am 14.5ft 11s 7s 29 36 mph 986mb 43f 40f
7:50am 16ft 11s 8s 29 38 mph 985mb 43f 40f